createdAt,value
2019-03-29T00:01:09.196Z,99.90
2019-03-29T00:03:38.154Z,99.90
2019-03-29T00:06:07.328Z,99.90
2019-03-29T00:08:36.733Z,99.90
2019-03-29T00:11:06.383Z,99.90
2019-03-29T00:13:37.118Z,99.90
2019-03-29T00:16:06.650Z,99.90
2019-03-29T00:18:36.368Z,99.90
2019-03-29T00:21:05.384Z,99.90
2019-03-29T00:23:35.092Z,99.90
2019-03-29T00:26:04.835Z,99.90
2019-03-29T00:28:33.910Z,99.90
2019-03-29T00:31:02.878Z,99.90
2019-03-29T00:33:31.987Z,99.90
2019-03-29T00:36:01.263Z,99.90
2019-03-29T00:38:30.124Z,99.90
2019-03-29T00:40:59.807Z,99.90
2019-03-29T00:43:29.438Z,99.90
2019-03-29T00:45:59.123Z,99.90
2019-03-29T00:48:29.019Z,99.90
2019-03-29T00:50:59.102Z,99.90
2019-03-29T00:53:28.228Z,99.90
2019-03-29T00:55:58.161Z,99.90
2019-03-29T00:58:28.060Z,99.90
2019-03-29T01:00:57.783Z,99.90
2019-03-29T01:03:26.617Z,99.90
2019-03-29T01:05:56.461Z,99.90
2019-03-29T01:08:26.703Z,99.90
2019-03-29T01:10:57.002Z,99.90
2019-03-29T01:13:25.929Z,99.90
2019-03-29T01:15:55.239Z,99.90
2019-03-29T01:18:24.436Z,99.90
2019-03-29T01:20:53.787Z,99.90
2019-03-29T01:23:24.010Z,99.90
2019-03-29T01:25:53.529Z,99.90
2019-03-29T01:28:23.260Z,99.90
2019-03-29T01:30:53.999Z,99.90
2019-03-29T01:33:22.887Z,99.90
2019-03-29T01:35:51.983Z,99.90
2019-03-29T01:38:24.018Z,99.90
2019-03-29T01:40:52.193Z,99.90
2019-03-29T01:43:21.404Z,99.90
2019-03-29T01:45:50.325Z,99.90
2019-03-29T01:48:19.253Z,99.90
2019-03-29T01:50:48.042Z,99.90
2019-03-29T01:53:17.517Z,99.90
2019-03-29T01:55:46.790Z,99.90
2019-03-29T01:58:16.460Z,99.90
2019-03-29T02:00:45.297Z,99.90
2019-03-29T02:03:14.215Z,99.90
2019-03-29T02:05:45.868Z,99.90
2019-03-29T02:08:15.030Z,99.90
2019-03-29T02:10:44.818Z,99.90
2019-03-29T02:13:13.662Z,99.90
2019-03-29T02:15:42.790Z,99.90
2019-03-29T02:18:11.633Z,99.90
2019-03-29T02:20:59.559Z,99.90
2019-03-29T02:23:28.923Z,99.90
2019-03-29T02:25:57.673Z,99.90
2019-03-29T02:28:26.836Z,99.90
2019-03-29T02:30:55.609Z,99.90
2019-03-29T02:33:24.370Z,99.90
2019-03-29T02:35:53.219Z,99.90
2019-03-29T02:38:23.616Z,99.90
2019-03-29T02:40:52.800Z,99.90
2019-03-29T02:43:22.189Z,99.90
2019-03-29T02:45:51.727Z,99.90
2019-03-29T02:48:21.459Z,99.90
2019-03-29T02:50:55.207Z,99.90
2019-03-29T02:53:24.132Z,99.90
2019-03-29T02:55:53.199Z,99.90
2019-03-29T02:58:22.063Z,99.90
2019-03-29T03:00:51.251Z,99.90
2019-03-29T03:03:20.510Z,99.90
2019-03-29T03:05:50.089Z,99.90
2019-03-29T03:08:18.910Z,99.90
2019-03-29T03:10:49.411Z,99.90
2019-03-29T03:13:18.541Z,99.90
2019-03-29T03:15:47.546Z,99.90
2019-03-29T03:18:18.264Z,99.90
2019-03-29T03:23:19.107Z,99.90
2019-03-29T03:25:48.536Z,99.90
2019-03-29T03:28:17.901Z,99.90
2019-03-29T03:33:16.008Z,99.90
2019-03-29T03:35:45.311Z,99.90
2019-03-29T03:38:14.192Z,99.90
2019-03-29T03:40:44.527Z,99.90
2019-03-29T03:43:13.976Z,99.90
2019-03-29T03:45:44.025Z,99.90
2019-03-29T03:48:13.415Z,99.90
2019-03-29T03:50:43.430Z,99.90
2019-03-29T03:53:12.380Z,99.90
2019-03-29T03:55:42.484Z,99.90
2019-03-29T03:58:12.747Z,99.90
2019-03-29T04:00:55.260Z,99.90
2019-03-29T04:03:24.728Z,99.90
2019-03-29T04:05:54.266Z,99.90
2019-03-29T04:08:23.773Z,99.90
2019-03-29T04:10:53.497Z,99.90
2019-03-29T04:13:22.517Z,99.90
2019-03-29T04:15:51.924Z,99.90
2019-03-29T04:18:21.012Z,99.90
2019-03-29T04:20:50.231Z,99.90
2019-03-29T04:23:19.674Z,99.90
2019-03-29T04:25:48.492Z,99.90
2019-03-29T04:28:19.540Z,99.90
2019-03-29T04:30:48.606Z,99.90
2019-03-29T04:33:17.731Z,99.90
2019-03-29T04:35:46.555Z,99.90
2019-03-29T04:38:15.474Z,99.90
2019-03-29T04:40:46.415Z,99.90
2019-03-29T04:43:15.199Z,99.90
2019-03-29T04:45:44.482Z,99.90
2019-03-29T04:48:13.429Z,99.90
2019-03-29T04:50:42.746Z,99.90
2019-03-29T04:53:11.572Z,99.90
2019-03-29T04:55:41.320Z,99.90
2019-03-29T04:58:10.266Z,99.90
2019-03-29T05:00:39.227Z,99.90
2019-03-29T05:03:08.522Z,99.90
2019-03-29T05:05:37.540Z,99.90
2019-03-29T05:08:07.098Z,99.90
2019-03-29T05:10:36.359Z,99.90
2019-03-29T05:13:05.270Z,99.90
2019-03-29T05:15:34.395Z,99.90
2019-03-29T05:18:04.415Z,99.90
2019-03-29T05:20:33.684Z,99.90
2019-03-29T05:23:03.587Z,99.90
2019-03-29T05:25:32.358Z,99.90
2019-03-29T05:28:01.654Z,99.90
2019-03-29T05:30:31.468Z,99.90
2019-03-29T05:33:04.280Z,99.90
2019-03-29T05:35:33.267Z,99.90
2019-03-29T05:38:03.227Z,99.90
2019-03-29T05:40:35.494Z,99.90
2019-03-29T05:43:05.646Z,99.90
2019-03-29T05:45:34.494Z,99.90
2019-03-29T05:48:06.428Z,99.90
2019-03-29T05:50:36.940Z,99.90
2019-03-29T05:53:06.339Z,99.90
2019-03-29T05:55:36.952Z,99.90
2019-03-29T05:58:05.776Z,99.90
2019-03-29T06:00:35.945Z,99.90
2019-03-29T06:03:10.012Z,99.90
2019-03-29T06:05:38.905Z,99.90
2019-03-29T06:08:09.383Z,99.90
2019-03-29T06:10:49.039Z,99.90
2019-03-29T06:13:09.642Z,99.90
2019-03-29T06:15:39.219Z,99.90
2019-03-29T06:18:08.757Z,99.90
2019-03-29T06:20:38.543Z,99.90
2019-03-29T06:23:08.343Z,99.90
2019-03-29T06:25:37.674Z,99.90
2019-03-29T06:28:06.787Z,99.90
2019-03-29T06:30:36.109Z,99.90
2019-03-29T06:33:05.247Z,99.90
2019-03-29T06:35:38.323Z,99.90
2019-03-29T06:38:09.402Z,99.90
2019-03-29T06:41:02.780Z,99.90
2019-03-29T06:43:26.536Z,99.90
2019-03-29T06:45:55.557Z,99.90
2019-03-29T06:48:24.736Z,99.90
2019-03-29T06:50:55.624Z,99.90
2019-03-29T06:53:26.602Z,99.90
2019-03-29T06:55:59.251Z,99.90
2019-03-29T06:58:30.114Z,99.90
2019-03-29T07:00:59.503Z,99.90
2019-03-29T07:03:28.490Z,99.90
2019-03-29T07:05:57.788Z,99.90
2019-03-29T07:08:26.714Z,99.90
2019-03-29T07:10:55.849Z,99.90
2019-03-29T07:13:24.905Z,99.90
2019-03-29T07:15:55.561Z,99.90
2019-03-29T07:18:24.908Z,99.90
2019-03-29T07:20:54.014Z,99.90
2019-03-29T07:23:23.506Z,99.90
2019-03-29T07:25:56.211Z,99.90
2019-03-29T07:28:24.357Z,99.90
2019-03-29T07:30:54.338Z,99.90
2019-03-29T07:33:23.150Z,99.90
2019-03-29T07:35:52.041Z,99.90
2019-03-29T07:38:21.027Z,99.90
2019-03-29T07:40:49.891Z,99.90
2019-03-29T07:43:20.022Z,99.90
2019-03-29T07:45:49.604Z,99.90
2019-03-29T07:48:18.389Z,99.90
2019-03-29T07:50:48.122Z,99.90
2019-03-29T07:53:17.605Z,99.90
2019-03-29T07:55:47.433Z,99.90
2019-03-29T07:58:17.645Z,99.90
2019-03-29T08:00:47.438Z,99.90
2019-03-29T08:03:16.565Z,99.90
2019-03-29T08:05:45.773Z,99.90
2019-03-29T08:08:23.758Z,99.90
2019-03-29T08:10:47.312Z,99.90
2019-03-29T08:13:16.491Z,99.90
2019-03-29T08:15:46.189Z,99.90
2019-03-29T08:18:16.318Z,99.90
2019-03-29T08:20:47.890Z,99.90
2019-03-29T08:23:16.646Z,99.90
2019-03-29T08:25:45.954Z,99.90
2019-03-29T08:28:17.454Z,99.90
2019-03-29T08:30:48.424Z,99.90
2019-03-29T08:33:17.304Z,99.90
2019-03-29T08:35:47.240Z,99.90
2019-03-29T08:38:17.920Z,99.90
2019-03-29T08:40:48.436Z,99.90
2019-03-29T08:43:17.923Z,99.90
2019-03-29T08:45:47.179Z,99.70
2019-03-29T08:48:16.283Z,97.60
2019-03-29T08:50:45.404Z,91.40
2019-03-29T08:53:14.641Z,96.30
2019-03-29T08:55:47.145Z,96.40
2019-03-29T08:58:17.279Z,95.70
2019-03-29T09:00:46.235Z,93.20
2019-03-29T09:03:16.486Z,94.50
2019-03-29T09:05:48.257Z,92.30
2019-03-29T09:08:17.688Z,93.10
2019-03-29T09:10:51.941Z,94.50
2019-03-29T09:13:21.294Z,95.30
2019-03-29T09:15:51.357Z,89.40
2019-03-29T09:18:21.599Z,84.60
2019-03-29T09:20:50.353Z,85.10
2019-03-29T09:23:20.243Z,84.80
2019-03-29T09:25:49.495Z,81.20
2019-03-29T09:28:22.459Z,79.00
2019-03-29T09:30:52.255Z,76.20
2019-03-29T09:33:21.804Z,77.30
2019-03-29T09:35:50.899Z,76.30
2019-03-29T09:38:20.064Z,76.00
2019-03-29T09:40:58.321Z,78.00
2019-03-29T09:43:20.070Z,79.10
2019-03-29T09:45:50.417Z,80.70
2019-03-29T09:48:21.865Z,82.60
2019-03-29T09:50:51.204Z,84.00
2019-03-29T09:53:20.165Z,76.00
2019-03-29T09:55:49.456Z,65.40
2019-03-29T09:58:18.857Z,66.30
2019-03-29T10:00:48.157Z,67.60
2019-03-29T10:03:17.023Z,70.40
2019-03-29T10:05:45.743Z,72.80
2019-03-29T10:08:15.147Z,72.00
2019-03-29T10:10:44.427Z,73.60
2019-03-29T10:13:14.187Z,80.70
2019-03-29T10:15:45.377Z,90.30
2019-03-29T10:18:14.029Z,99.90
2019-03-29T10:20:44.010Z,99.90
2019-03-29T10:23:13.170Z,99.90
2019-03-29T10:25:42.436Z,99.90
2019-03-29T10:28:12.675Z,99.90
2019-03-29T10:30:46.583Z,99.90
2019-03-29T10:33:14.199Z,98.30
2019-03-29T10:35:52.153Z,92.20
2019-03-29T10:38:17.981Z,89.80
2019-03-29T10:40:45.929Z,78.10
2019-03-29T10:43:15.808Z,75.70
2019-03-29T10:45:45.347Z,68.40
2019-03-29T10:48:14.459Z,68.50
2019-03-29T10:50:43.437Z,68.20
2019-03-29T10:53:14.701Z,66.40
2019-03-29T10:55:44.207Z,67.20
2019-03-29T10:58:13.623Z,66.60
2019-03-29T11:00:43.217Z,65.30
2019-03-29T11:03:12.345Z,66.00
2019-03-29T11:05:45.986Z,66.00
2019-03-29T11:08:21.006Z,65.60
2019-03-29T11:10:55.112Z,70.20
2019-03-29T11:13:26.246Z,72.80
2019-03-29T11:15:55.925Z,74.60
2019-03-29T11:18:26.709Z,74.30
2019-03-29T11:20:55.854Z,80.80
2019-03-29T11:23:24.863Z,82.00
2019-03-29T11:25:54.926Z,85.00
2019-03-29T11:28:29.833Z,89.10
2019-03-29T11:30:59.395Z,99.90
2019-03-29T11:33:28.560Z,99.90
2019-03-29T11:35:58.081Z,99.90
2019-03-29T11:38:28.893Z,99.90
2019-03-29T11:40:58.553Z,99.90
2019-03-29T11:43:29.275Z,99.90
2019-03-29T11:45:59.395Z,99.90
2019-03-29T11:48:29.728Z,99.90
2019-03-29T11:50:58.711Z,99.90
2019-03-29T11:53:27.689Z,99.90
2019-03-29T11:55:57.837Z,99.90
2019-03-29T11:58:27.143Z,99.90
2019-03-29T12:00:56.203Z,99.90
2019-03-29T12:03:25.537Z,99.90
2019-03-29T12:05:54.385Z,99.90
2019-03-29T12:08:23.325Z,99.90
2019-03-29T12:10:52.160Z,99.00
2019-03-29T12:13:22.220Z,99.00
2019-03-29T12:15:52.938Z,98.50
2019-03-29T12:18:23.175Z,97.50
2019-03-29T12:23:24.723Z,94.20
2019-03-29T12:25:55.031Z,96.60
2019-03-29T12:28:24.870Z,96.00
2019-03-29T12:30:54.831Z,95.80
2019-03-29T12:33:23.723Z,96.50
2019-03-29T12:35:54.043Z,97.20
2019-03-29T12:38:23.103Z,96.50
2019-03-29T12:40:52.601Z,98.50
2019-03-29T12:43:22.428Z,98.80
2019-03-29T12:45:51.708Z,99.90
2019-03-29T12:48:21.552Z,99.90
2019-03-29T12:50:50.644Z,99.90
2019-03-29T12:53:20.724Z,99.90
2019-03-29T12:55:50.008Z,99.90
2019-03-29T12:58:19.080Z,99.90
2019-03-29T13:00:48.503Z,99.50
2019-03-29T13:03:17.802Z,96.60
2019-03-29T13:05:47.056Z,98.20
2019-03-29T13:08:17.529Z,97.00
2019-03-29T13:10:47.187Z,96.20
2019-03-29T13:13:16.091Z,97.40
2019-03-29T13:15:45.333Z,96.10
2019-03-29T13:18:14.407Z,97.30
2019-03-29T13:20:44.030Z,98.20
2019-03-29T13:23:13.146Z,95.90
2019-03-29T13:25:43.006Z,96.50
2019-03-29T13:28:12.096Z,95.80
2019-03-29T13:30:42.123Z,96.00
2019-03-29T13:33:11.764Z,97.20
2019-03-29T13:35:40.565Z,95.70
2019-03-29T13:38:09.634Z,95.60
2019-03-29T13:40:40.209Z,94.40
2019-03-29T13:43:09.668Z,94.20
2019-03-29T13:45:38.969Z,95.40
2019-03-29T13:48:07.916Z,98.30
2019-03-29T13:50:38.658Z,97.00
2019-03-29T13:53:07.926Z,95.70
2019-03-29T13:55:37.157Z,96.70
2019-03-29T13:58:07.034Z,98.90
2019-03-29T14:00:36.208Z,99.90
2019-03-29T14:03:06.189Z,98.00
2019-03-29T14:05:37.373Z,97.10
2019-03-29T14:08:06.544Z,99.00
2019-03-29T14:10:35.947Z,97.90
2019-03-29T14:13:04.842Z,99.40
2019-03-29T14:15:34.077Z,98.00
2019-03-29T14:18:03.628Z,99.20
2019-03-29T14:20:35.685Z,95.90
2019-03-29T14:23:05.001Z,94.90
2019-03-29T14:25:34.521Z,95.80
2019-03-29T14:28:04.156Z,96.20
2019-03-29T14:30:33.157Z,94.30
2019-03-29T14:33:03.232Z,94.40
2019-03-29T14:35:32.020Z,93.50
2019-03-29T14:38:01.596Z,93.60
2019-03-29T14:40:30.366Z,94.90
2019-03-29T14:42:59.199Z,95.50
2019-03-29T14:45:28.148Z,96.60
2019-03-29T14:47:57.912Z,96.90
2019-03-29T14:50:27.578Z,98.10
2019-03-29T14:52:58.552Z,95.70
2019-03-29T14:55:27.339Z,95.30
2019-03-29T14:57:58.331Z,96.80
2019-03-29T15:00:43.549Z,96.80
2019-03-29T15:03:14.456Z,97.20
2019-03-29T15:05:43.839Z,98.10
2019-03-29T15:08:13.120Z,98.00
2019-03-29T15:11:07.014Z,97.60
2019-03-29T15:13:36.438Z,96.80
2019-03-29T15:16:05.365Z,97.90
2019-03-29T15:18:34.962Z,97.10
2019-03-29T15:21:04.315Z,96.30
2019-03-29T15:23:34.109Z,96.70
2019-03-29T15:26:03.566Z,95.10
2019-03-29T15:28:32.382Z,95.40
2019-03-29T15:31:01.418Z,97.60
2019-03-29T15:33:31.490Z,98.10
2019-03-29T15:36:00.684Z,98.40
2019-03-29T15:38:29.970Z,99.00
2019-03-29T15:41:00.035Z,97.60
2019-03-29T15:43:30.347Z,97.70
2019-03-29T15:46:01.230Z,99.00
2019-03-29T15:48:30.765Z,96.40
2019-03-29T15:51:00.023Z,98.00
2019-03-29T15:53:29.640Z,98.30
2019-03-29T15:55:59.510Z,97.90
2019-03-29T15:58:28.624Z,97.20
2019-03-29T16:00:57.793Z,95.70
2019-03-29T16:03:27.569Z,96.10
2019-03-29T16:05:57.220Z,96.50
2019-03-29T16:08:26.154Z,97.10
2019-03-29T16:10:55.586Z,97.40
2019-03-29T16:13:24.996Z,97.60
2019-03-29T16:15:53.746Z,96.40
2019-03-29T16:18:23.190Z,97.70
2019-03-29T16:20:54.228Z,97.30
2019-03-29T16:23:24.310Z,97.20
2019-03-29T16:25:53.646Z,97.50
2019-03-29T16:28:23.068Z,98.80
2019-03-29T16:31:00.839Z,98.90
2019-03-29T16:33:43.145Z,98.80
2019-03-29T16:36:17.890Z,98.10
2019-03-29T16:38:48.182Z,99.20
2019-03-29T16:41:17.674Z,98.60
2019-03-29T16:43:47.169Z,98.90
2019-03-29T16:46:16.095Z,99.90
2019-03-29T16:48:44.824Z,99.90
2019-03-29T16:51:14.512Z,99.90
2019-03-29T16:53:43.825Z,99.90
2019-03-29T16:56:12.731Z,99.90
2019-03-29T16:58:42.061Z,99.90
2019-03-29T17:01:11.609Z,99.90
2019-03-29T17:03:40.420Z,99.90
2019-03-29T17:06:09.506Z,99.90
2019-03-29T17:08:38.942Z,99.90
2019-03-29T17:11:08.093Z,99.90
2019-03-29T17:13:37.945Z,99.90
2019-03-29T17:16:06.803Z,99.90
2019-03-29T17:18:39.982Z,99.90
2019-03-29T17:21:08.747Z,99.90
2019-03-29T17:23:38.182Z,99.90
2019-03-29T17:26:11.423Z,99.90
2019-03-29T17:28:40.731Z,99.90
2019-03-29T17:31:19.211Z,99.90
2019-03-29T17:33:49.671Z,99.90
2019-03-29T17:36:21.193Z,99.90
2019-03-29T17:38:51.380Z,99.90
2019-03-29T17:41:21.223Z,99.90
2019-03-29T17:43:51.636Z,99.90
2019-03-29T17:46:21.065Z,99.90
2019-03-29T17:48:50.212Z,99.90
2019-03-29T17:51:20.453Z,99.90
2019-03-29T17:53:50.057Z,99.90
2019-03-29T17:56:19.124Z,99.90
2019-03-29T17:58:48.304Z,99.90
2019-03-29T18:01:18.018Z,99.90
2019-03-29T18:04:02.717Z,99.90
2019-03-29T18:06:29.153Z,99.90
2019-03-29T18:08:58.102Z,99.90
2019-03-29T18:11:27.607Z,99.90
2019-03-29T18:13:57.547Z,99.90
2019-03-29T18:16:30.891Z,99.90
2019-03-29T18:18:58.008Z,99.90
2019-03-29T18:21:27.209Z,99.90
2019-03-29T18:23:56.553Z,99.90
2019-03-29T18:26:25.924Z,99.90
2019-03-29T18:28:54.825Z,99.90
2019-03-29T18:31:23.614Z,99.90
2019-03-29T18:33:52.621Z,99.90
2019-03-29T18:36:22.573Z,99.90
2019-03-29T18:38:51.636Z,99.90
2019-03-29T18:41:22.382Z,99.90
2019-03-29T18:43:51.676Z,99.90
2019-03-29T18:46:21.186Z,99.90
2019-03-29T18:48:49.933Z,99.90
2019-03-29T18:51:19.182Z,99.90
2019-03-29T18:53:49.174Z,99.90
2019-03-29T18:56:18.345Z,99.90
2019-03-29T18:58:48.197Z,99.90
2019-03-29T19:01:17.674Z,99.90
2019-03-29T19:03:47.386Z,99.90
2019-03-29T19:06:16.848Z,99.90
2019-03-29T19:08:46.251Z,99.90
2019-03-29T19:11:15.818Z,99.90
2019-03-29T19:13:44.584Z,99.90
2019-03-29T19:16:13.456Z,99.90
2019-03-29T19:18:43.295Z,99.90
2019-03-29T19:21:12.830Z,99.90
2019-03-29T19:23:44.858Z,99.90
2019-03-29T19:26:13.876Z,99.90
2019-03-29T19:28:43.278Z,99.90
2019-03-29T19:31:12.684Z,99.90
2019-03-29T19:33:42.294Z,99.90
2019-03-29T19:36:11.541Z,99.90
2019-03-29T19:38:40.413Z,99.90
2019-03-29T19:41:09.177Z,99.90
2019-03-29T19:43:38.473Z,99.90
2019-03-29T19:46:07.222Z,99.90
2019-03-29T19:48:36.298Z,99.90
2019-03-29T19:51:07.369Z,99.90
2019-03-29T19:53:36.225Z,99.90
2019-03-29T19:56:05.599Z,99.90
2019-03-29T19:58:34.675Z,99.90
2019-03-29T20:01:04.884Z,99.90
2019-03-29T20:03:33.639Z,99.90
2019-03-29T20:06:02.607Z,99.90
2019-03-29T20:08:32.131Z,99.90
2019-03-29T20:11:02.040Z,99.90
2019-03-29T20:13:31.541Z,99.90
2019-03-29T20:16:00.301Z,99.90
2019-03-29T20:18:30.172Z,99.90
2019-03-29T20:20:59.440Z,99.90
2019-03-29T20:23:28.402Z,99.90
2019-03-29T20:25:57.195Z,99.90
2019-03-29T20:28:25.980Z,99.90
2019-03-29T20:30:55.780Z,99.90
2019-03-29T20:33:25.006Z,99.90
2019-03-29T20:35:53.796Z,99.90
2019-03-29T20:38:23.025Z,99.90
2019-03-29T20:40:52.046Z,99.90
2019-03-29T20:43:21.685Z,99.90
2019-03-29T20:45:50.586Z,99.90
2019-03-29T20:48:19.779Z,99.90
2019-03-29T20:50:50.248Z,99.90
2019-03-29T20:53:19.036Z,99.90
2019-03-29T20:55:48.412Z,99.90
2019-03-29T20:58:17.735Z,99.90
2019-03-29T21:00:47.147Z,99.90
2019-03-29T21:03:17.147Z,99.90
2019-03-29T21:05:46.122Z,99.90
2019-03-29T21:08:15.852Z,99.90
2019-03-29T21:10:55.509Z,99.90
2019-03-29T21:13:15.934Z,99.90
2019-03-29T21:15:45.591Z,99.90
2019-03-29T21:18:17.439Z,99.90
2019-03-29T21:20:46.280Z,99.90
2019-03-29T21:23:15.401Z,99.90
2019-03-29T21:25:44.769Z,99.90
2019-03-29T21:28:14.014Z,99.90
2019-03-29T21:30:44.704Z,99.90
2019-03-29T21:33:13.801Z,99.90
2019-03-29T21:35:43.189Z,99.90
2019-03-29T21:38:12.952Z,99.90
2019-03-29T21:40:42.036Z,99.90
2019-03-29T21:43:10.959Z,99.90
2019-03-29T21:45:40.457Z,99.90
2019-03-29T21:48:27.391Z,99.90
2019-03-29T21:50:40.852Z,99.90
2019-03-29T21:53:09.934Z,99.90
2019-03-29T21:55:39.191Z,99.90
2019-03-29T21:58:08.745Z,99.90
2019-03-29T22:00:39.467Z,99.90
2019-03-29T22:03:09.023Z,99.90
2019-03-29T22:05:39.031Z,99.90
2019-03-29T22:08:07.952Z,99.90
2019-03-29T22:10:37.958Z,99.90
2019-03-29T22:13:07.912Z,99.90
2019-03-29T22:15:37.313Z,99.90
2019-03-29T22:18:07.128Z,99.90
2019-03-29T22:20:36.222Z,99.90
2019-03-29T22:23:05.073Z,99.90
2019-03-29T22:25:34.281Z,99.90
2019-03-29T22:28:03.965Z,99.90
2019-03-29T22:30:33.103Z,99.90
2019-03-29T22:33:04.116Z,99.90
2019-03-29T22:35:33.150Z,99.90
2019-03-29T22:38:03.108Z,99.90
2019-03-29T22:40:32.395Z,99.90
2019-03-29T22:43:01.847Z,99.90
2019-03-29T22:45:31.146Z,99.90
2019-03-29T22:47:59.962Z,99.90
2019-03-29T22:50:30.893Z,99.90
2019-03-29T22:53:00.355Z,99.90
2019-03-29T22:55:29.976Z,99.90
2019-03-29T22:57:59.396Z,99.90
2019-03-29T23:00:37.194Z,99.90
2019-03-29T23:03:06.997Z,99.90
2019-03-29T23:05:37.710Z,99.90
2019-03-29T23:08:07.486Z,99.90
2019-03-29T23:10:38.065Z,99.90
2019-03-29T23:13:08.579Z,99.90
2019-03-29T23:15:37.814Z,99.90
2019-03-29T23:18:07.283Z,99.90
2019-03-29T23:20:36.619Z,99.90
2019-03-29T23:23:06.081Z,99.90
2019-03-29T23:25:35.717Z,99.90
2019-03-29T23:28:04.623Z,99.90
2019-03-29T23:30:35.172Z,99.90
2019-03-29T23:33:05.244Z,99.90
2019-03-29T23:35:35.318Z,99.90
2019-03-29T23:38:04.805Z,99.90
2019-03-29T23:40:34.508Z,99.90
2019-03-29T23:43:03.616Z,99.90
2019-03-29T23:45:35.479Z,99.90
2019-03-29T23:48:05.186Z,99.90
2019-03-29T23:50:34.826Z,99.90
2019-03-29T23:53:03.959Z,99.90
2019-03-29T23:55:33.496Z,99.90
2019-03-29T23:58:03.270Z,99.90
